SARFSGES

Guest
Details From SARF - FORMOSA
To SGES - GUARANI INTL
Flight Number -
Tags generated
Created
Modified
Stats Distance 198 nm / 366 km
Max Altitude 19,500 ft / 5,944 m
Waypoints 3
Social Downloads 0
Likes 0
Share VATSIM

Download

Looking for another format? Having issues loading an existing format? Contact us
Advertisement - Login to hide

Notes

Basic altitude profile: - Ascent Rate: 2500ft/min - Ascent Speed: 250kts - Cruise Altitude: 35000ft - Cruise Speed: 420kts - Descent Rate: 1500ft/min - Descent Speed: 250kts Options: - Use NATs: yes - Use PACOTS: yes - Use low airways: yes - Use high airways: yes

Route

SARF EKILO SGES

ID Type Via Altitude Latitude Longitude Leg Dist Tot Dist Heading (true) Name
O SARF APT - 0 ft / 0 m -26.21272˚ -58.22811˚ - 0 nm - FORMOSA
EKILO FIX - 19,500 ft / 5,944 m -25.35667˚ -56.61167˚ 101 nm 101 nm 60° / 59° -
O SGES APT - 0 ft / 0 m -25.45550˚ -54.84359˚ 96 nm 197 nm 94° / 93° GUARANI INTL

Altitude Profile

Advertisement - Login to hide

Weather


0- 5 10 15 20 25 30 35+ Temperature / ° C

Clouds and Precipitation
Forecast for 2018-05-25 00:00 UTC. Updated 44 minutes ago

Ground ~20,000 ft ~40,000 ft Winds

SARF

Details ICAO SARF (FMA)
Name FORMOSA
Region Argentina
Timezone America/Argentina/Cordoba (UTC-3.0)
Stats Elevation 194 ft / 59 m (AMSL)
Location -26.212722° -58.228111°
Runways 1
Magnetic Variation 13.314° W

METAR

SARF 250000Z 23003KT CAVOK 13/12 Q1021

Decode

TAF

TAF SARF 242300Z 2500/2524 14005KT CAVOK TX23/2518Z TN08/2510Z PROB30 2508/2511 4000 BR NSC

Decode

Departure Runways

ID Width Length Bearing (true) Bearing (mag) Surface Threshold Offset Overrun Length
04 100 ft / 30 m 5,922 ft / 1,805 m 24.88° 38.19° Asphalt 0 ft / 0 m 65 ft / 20 m
22 100 ft / 30 m 5,922 ft / 1,805 m 204.88° 218.19° Asphalt 0 ft / 0 m 65 ft / 20 m

SGES

Details ICAO SGES (AGT)
Name GUARANI INTL
Region Paraguay
Timezone America/Asuncion (UTC-4.0)
Stats Elevation 846 ft / 258 m (AMSL)
Location -25.455499° -54.843593°
Runways 1
Magnetic Variation 16.156° W

METAR

SGES 240000Z 12003KT 9999 SCT020 BKN070 18/15 Q1021

Decode

TAF

TAF SGES 241745Z 2418/2518 36003KT CAVOK TX23/2419Z TN10/2509Z

Decode

Destination Runways

ID Width Length Bearing (true) Bearing (mag) Surface Threshold Offset Overrun Length
05 148 ft / 45 m 11,175 ft / 3,406 m 40.64° 56.80° Asphalt 0 ft / 0 m 197 ft / 60 m
23 148 ft / 45 m 11,175 ft / 3,406 m 220.63° 236.79° Asphalt 0 ft / 0 m 197 ft / 60 m

Approach Navaids

Runway Type Ident Frequency Range Bearing (true) Bearing (mag) Slope Elevation
23 Localiser ICES 111.30 MHz 18 nm / 33 km 220.63° 236.79° - 846 ft / 258 m (AMSL)
23 Glidescope ICES 111.30 MHz 10 nm / 19 km 220.63° 236.79° 3.00° 804 ft / 245 m (AMSL)